sensor_id;sensor_type;location;lat;lon;timestamp;pressure;altitude;pressure_sealevel;temperature;humidity
706;BME280;21234;48.690;9.016;2023-02-15T00:00:12;97356.22;;;1.30;94.70
706;BME280;21234;48.690;9.016;2023-02-15T00:02:39;97358.59;;;1.25;94.52
706;BME280;21234;48.690;9.016;2023-02-15T00:05:06;97348.84;;;1.32;94.24
706;BME280;21234;48.690;9.016;2023-02-15T00:07:33;97355.75;;;1.27;94.12
706;BME280;21234;48.690;9.016;2023-02-15T00:10:00;97346.34;;;1.31;93.09
706;BME280;21234;48.690;9.016;2023-02-15T00:12:27;97339.47;;;1.37;93.01
706;BME280;21234;48.690;9.016;2023-02-15T00:14:54;97332.28;;;1.37;92.68
706;BME280;21234;48.690;9.016;2023-02-15T00:17:22;97333.47;;;1.18;93.10
706;BME280;21234;48.690;9.016;2023-02-15T00:19:49;97338.97;;;1.17;93.25
706;BME280;21234;48.690;9.016;2023-02-15T00:22:15;97336.13;;;1.18;93.47
706;BME280;21234;48.690;9.016;2023-02-15T00:24:42;97331.78;;;1.17;93.27
706;BME280;21234;48.690;9.016;2023-02-15T00:27:09;97335.97;;;1.20;93.00
706;BME280;21234;48.690;9.016;2023-02-15T00:29:35;97335.16;;;1.27;92.98
706;BME280;21234;48.690;9.016;2023-02-15T00:32:02;97329.28;;;1.24;92.78
706;BME280;21234;48.690;9.016;2023-02-15T00:34:30;97330.94;;;1.17;94.17
706;BME280;21234;48.690;9.016;2023-02-15T00:36:57;97324.75;;;1.16;94.05
706;BME280;21234;48.690;9.016;2023-02-15T00:39:24;97323.09;;;1.23;93.20
706;BME280;21234;48.690;9.016;2023-02-15T00:41:52;97326.25;;;1.35;93.20
706;BME280;21234;48.690;9.016;2023-02-15T00:44:19;97330.78;;;1.18;94.83
706;BME280;21234;48.690;9.016;2023-02-15T00:46:45;97328.09;;;1.34;93.75
706;BME280;21234;48.690;9.016;2023-02-15T00:49:12;97328.28;;;1.41;94.82
706;BME280;21234;48.690;9.016;2023-02-15T00:51:40;97326.41;;;1.33;94.29
706;BME280;21234;48.690;9.016;2023-02-15T00:54:07;97332.81;;;1.24;94.77
706;BME280;21234;48.690;9.016;2023-02-15T00:56:34;97323.09;;;1.23;95.59
706;BME280;21234;48.690;9.016;2023-02-15T00:59:01;97321.91;;;1.34;94.57
706;BME280;21234;48.690;9.016;2023-02-15T01:01:27;97318.06;;;1.37;94.46
706;BME280;21234;48.690;9.016;2023-02-15T01:03:54;97314.69;;;1.34;94.48
706;BME280;21234;48.690;9.016;2023-02-15T01:06:21;97314.38;;;1.38;96.03
706;BME280;21234;48.690;9.016;2023-02-15T01:08:49;97307.50;;;1.35;95.76
706;BME280;21234;48.690;9.016;2023-02-15T01:11:19;97310.38;;;1.25;95.09
706;BME280;21234;48.690;9.016;2023-02-15T01:13:48;97312.38;;;1.23;96.08
706;BME280;21234;48.690;9.016;2023-02-15T01:16:15;97313.38;;;1.22;97.45
706;BME280;21234;48.690;9.016;2023-02-15T01:18:42;97318.69;;;1.06;99.95
706;BME280;21234;48.690;9.016;2023-02-15T01:21:10;97324.03;;;0.98;97.16
706;BME280;21234;48.690;9.016;2023-02-15T01:23:39;97319.34;;;1.00;96.70
706;BME280;21234;48.690;9.016;2023-02-15T01:26:07;97314.53;;;1.12;95.38
706;BME280;21234;48.690;9.016;2023-02-15T01:28:35;97315.84;;;1.08;95.50
706;BME280;21234;48.690;9.016;2023-02-15T01:31:05;97314.34;;;1.05;95.20
706;BME280;21234;48.690;9.016;2023-02-15T01:33:32;97315.69;;;1.01;95.68
706;BME280;21234;48.690;9.016;2023-02-15T01:35:59;97322.03;;;0.92;94.68
706;BME280;21234;48.690;9.016;2023-02-15T01:38:26;97312.59;;;0.72;95.15
706;BME280;21234;48.690;9.016;2023-02-15T01:40:53;97317.81;;;0.65;95.10
706;BME280;21234;48.690;9.016;2023-02-15T01:43:44;97308.75;;;0.66;95.31
706;BME280;21234;48.690;9.016;2023-02-15T01:46:11;97310.09;;;0.70;95.50
706;BME280;21234;48.690;9.016;2023-02-15T01:48:41;97306.78;;;0.76;94.78
706;BME280;21234;48.690;9.016;2023-02-15T01:51:10;97300.75;;;0.82;95.13
706;BME280;21234;48.690;9.016;2023-02-15T01:53:42;97305.31;;;0.90;94.81
706;BME280;21234;48.690;9.016;2023-02-15T01:56:14;97298.28;;;0.89;95.28
706;BME280;21234;48.690;9.016;2023-02-15T01:58:43;97303.97;;;0.94;96.80
706;BME280;21234;48.690;9.016;2023-02-15T02:01:10;97304.66;;;0.96;99.09
706;BME280;21234;48.690;9.016;2023-02-15T02:03:42;97302.47;;;0.91;96.63
706;BME280;21234;48.690;9.016;2023-02-15T02:06:12;97295.63;;;0.97;96.47
706;BME280;21234;48.690;9.016;2023-02-15T02:08:39;97305.66;;;1.11;97.87
706;BME280;21234;48.690;9.016;2023-02-15T02:11:10;97297.63;;;0.95;97.48
706;BME280;21234;48.690;9.016;2023-02-15T02:13:37;97297.63;;;0.95;96.41
706;BME280;21234;48.690;9.016;2023-02-15T02:16:09;97292.25;;;0.87;95.86
706;BME280;21234;48.690;9.016;2023-02-15T02:18:46;97282.00;;;0.74;96.16
706;BME280;21234;48.690;9.016;2023-02-15T02:24:43;97285.72;;;0.89;96.05
706;BME280;21234;48.690;9.016;2023-02-15T02:27:35;97289.84;;;0.67;96.82
706;BME280;21234;48.690;9.016;2023-02-15T02:33:34;97274.50;;;0.86;96.93
706;BME280;21234;48.690;9.016;2023-02-15T02:36:11;97272.16;;;0.83;95.60
706;BME280;21234;48.690;9.016;2023-02-15T02:38:50;97270.28;;;0.75;95.84
706;BME280;21234;48.690;9.016;2023-02-15T02:41:27;97276.31;;;0.61;96.48
706;BME280;21234;48.690;9.016;2023-02-15T02:44:03;97274.78;;;0.58;97.20
706;BME280;21234;48.690;9.016;2023-02-15T02:46:36;97276.94;;;0.55;96.40
706;BME280;21234;48.690;9.016;2023-02-15T02:49:04;97277.81;;;0.63;95.87
706;BME280;21234;48.690;9.016;2023-02-15T02:51:31;97269.75;;;0.47;96.21
706;BME280;21234;48.690;9.016;2023-02-15T02:54:01;97266.75;;;0.58;96.70
706;BME280;21234;48.690;9.016;2023-02-15T02:56:34;97268.59;;;0.58;97.37
706;BME280;21234;48.690;9.016;2023-02-15T02:59:06;97270.06;;;0.44;98.10
706;BME280;21234;48.690;9.016;2023-02-15T03:01:39;97281.88;;;0.25;100.00
706;BME280;21234;48.690;9.016;2023-02-15T03:04:11;97269.63;;;0.15;100.00
706;BME280;21234;48.690;9.016;2023-02-15T03:06:43;97271.97;;;0.18;100.00
706;BME280;21234;48.690;9.016;2023-02-15T03:09:15;97267.06;;;0.47;98.49
706;BME280;21234;48.690;9.016;2023-02-15T03:11:44;97266.91;;;0.49;97.27
706;BME280;21234;48.690;9.016;2023-02-15T03:14:12;97261.34;;;0.42;97.44
706;BME280;21234;48.690;9.016;2023-02-15T03:16:42;97262.50;;;0.31;97.71
706;BME280;21234;48.690;9.016;2023-02-15T03:19:13;97266.03;;;0.32;97.34
706;BME280;21234;48.690;9.016;2023-02-15T03:21:44;97264.31;;;0.23;97.07
706;BME280;21234;48.690;9.016;2023-02-15T03:24:17;97268.31;;;0.19;96.45
706;BME280;21234;48.690;9.016;2023-02-15T03:26:49;97262.59;;;0.14;96.47
706;BME280;21234;48.690;9.016;2023-02-15T03:29:18;97260.63;;;0.24;95.37
706;BME280;21234;48.690;9.016;2023-02-15T03:31:49;97261.50;;;0.32;95.04
706;BME280;21234;48.690;9.016;2023-02-15T03:34:18;97261.81;;;0.21;95.25
706;BME280;21234;48.690;9.016;2023-02-15T03:36:49;97256.56;;;0.12;96.07
706;BME280;21234;48.690;9.016;2023-02-15T03:39:20;97259.03;;;0.05;96.76
706;BME280;21234;48.690;9.016;2023-02-15T03:41:55;97257.53;;;0.03;96.55
706;BME280;21234;48.690;9.016;2023-02-15T03:44:27;97264.75;;;0.10;96.92
706;BME280;21234;48.690;9.016;2023-02-15T03:47:00;97267.59;;;0.09;96.46
706;BME280;21234;48.690;9.016;2023-02-15T03:49:36;97265.22;;;0.06;96.53
706;BME280;21234;48.690;9.016;2023-02-15T03:52:06;97277.59;;;-0.02;96.52
706;BME280;21234;48.690;9.016;2023-02-15T03:54:35;97276.19;;;-0.14;98.28
706;BME280;21234;48.690;9.016;2023-02-15T03:57:10;97285.34;;;-0.16;99.78
706;BME280;21234;48.690;9.016;2023-02-15T03:59:55;97275.97;;;-0.20;98.94
706;BME280;21234;48.690;9.016;2023-02-15T04:02:46;97272.41;;;-0.29;97.30
706;BME280;21234;48.690;9.016;2023-02-15T04:05:17;97273.72;;;0.01;96.21
706;BME280;21234;48.690;9.016;2023-02-15T04:07:43;97264.88;;;0.00;94.06
706;BME280;21234;48.690;9.016;2023-02-15T04:10:10;97258.16;;;-0.12;94.22
706;BME280;21234;48.690;9.016;2023-02-15T04:12:54;97255.88;;;-0.32;94.71
706;BME280;21234;48.690;9.016;2023-02-15T04:15:21;97252.69;;;-0.36;94.47
706;BME280;21234;48.690;9.016;2023-02-15T04:18:05;97263.69;;;-0.39;95.07
706;BME280;21234;48.690;9.016;2023-02-15T04:20:33;97264.63;;;-0.48;95.20
706;BME280;21234;48.690;9.016;2023-02-15T04:23:17;97266.97;;;-0.45;95.36
706;BME280;21234;48.690;9.016;2023-02-15T04:26:03;97270.81;;;-0.48;96.54
706;BME280;21234;48.690;9.016;2023-02-15T04:28:30;97274.59;;;-0.32;97.32
706;BME280;21234;48.690;9.016;2023-02-15T04:30:56;97258.88;;;-0.27;97.22
706;BME280;21234;48.690;9.016;2023-02-15T04:33:23;97251.03;;;-0.29;97.44
706;BME280;21234;48.690;9.016;2023-02-15T04:35:51;97251.59;;;-0.17;97.74
706;BME280;21234;48.690;9.016;2023-02-15T04:38:18;97251.44;;;-0.16;96.24
706;BME280;21234;48.690;9.016;2023-02-15T04:40:49;97245.09;;;-0.15;95.98
706;BME280;21234;48.690;9.016;2023-02-15T04:43:16;97250.44;;;-0.15;96.44
706;BME280;21234;48.690;9.016;2023-02-15T04:45:47;97244.06;;;-0.22;96.61
706;BME280;21234;48.690;9.016;2023-02-15T04:48:15;97244.41;;;-0.17;97.56
706;BME280;21234;48.690;9.016;2023-02-15T04:50:42;97244.41;;;-0.17;97.11
706;BME280;21234;48.690;9.016;2023-02-15T04:53:10;97239.75;;;-0.15;96.69
706;BME280;21234;48.690;9.016;2023-02-15T04:55:37;97248.19;;;-0.36;97.21
706;BME280;21234;48.690;9.016;2023-02-15T04:58:04;97248.13;;;-0.70;99.00
706;BME280;21234;48.690;9.016;2023-02-15T05:00:30;97247.69;;;-0.83;100.00
706;BME280;21234;48.690;9.016;2023-02-15T05:02:57;97250.06;;;-0.80;100.00
706;BME280;21234;48.690;9.016;2023-02-15T05:05:24;97249.38;;;-0.56;100.00
706;BME280;21234;48.690;9.016;2023-02-15T05:07:50;97244.63;;;-0.44;99.08
706;BME280;21234;48.690;9.016;2023-02-15T05:10:19;97241.25;;;-0.46;98.18
706;BME280;21234;48.690;9.016;2023-02-15T05:12:45;97236.22;;;-0.49;98.21
706;BME280;21234;48.690;9.016;2023-02-15T05:15:12;97236.13;;;-0.40;97.37
706;BME280;21234;48.690;9.016;2023-02-15T05:17:39;97232.31;;;-0.37;96.87
706;BME280;21234;48.690;9.016;2023-02-15T05:20:06;97239.78;;;-0.41;95.58
706;BME280;21234;48.690;9.016;2023-02-15T05:22:33;97239.84;;;-0.32;94.79
706;BME280;21234;48.690;9.016;2023-02-15T05:25:00;97238.97;;;-0.41;94.21
706;BME280;21234;48.690;9.016;2023-02-15T05:27:45;97236.66;;;-0.36;94.01
706;BME280;21234;48.690;9.016;2023-02-15T05:30:30;97232.47;;;-0.39;94.44
706;BME280;21234;48.690;9.016;2023-02-15T05:32:56;97231.56;;;-0.47;94.07
706;BME280;21234;48.690;9.016;2023-02-15T05:35:23;97239.00;;;-0.59;94.47
706;BME280;21234;48.690;9.016;2023-02-15T05:37:50;97234.97;;;-0.63;94.91
706;BME280;21234;48.690;9.016;2023-02-15T05:40:16;97238.81;;;-0.65;95.46
706;BME280;21234;48.690;9.016;2023-02-15T05:42:43;97241.09;;;-0.45;95.32
706;BME280;21234;48.690;9.016;2023-02-15T05:45:11;97244.88;;;-0.55;95.46
706;BME280;21234;48.690;9.016;2023-02-15T05:47:38;97250.44;;;-0.49;96.31
706;BME280;21234;48.690;9.016;2023-02-15T05:50:06;97247.97;;;-0.42;96.42
706;BME280;21234;48.690;9.016;2023-02-15T05:52:33;97248.44;;;-0.47;96.50
706;BME280;21234;48.690;9.016;2023-02-15T05:54:59;97252.94;;;-0.47;96.52
706;BME280;21234;48.690;9.016;2023-02-15T05:57:28;97245.75;;;-0.47;95.99
706;BME280;21234;48.690;9.016;2023-02-15T05:59:54;97252.53;;;-0.35;94.77
706;BME280;21234;48.690;9.016;2023-02-15T06:02:22;97252.03;;;-0.30;95.37
706;BME280;21234;48.690;9.016;2023-02-15T06:04:49;97249.72;;;-0.25;95.13
706;BME280;21234;48.690;9.016;2023-02-15T06:07:16;97248.88;;;-0.33;94.79
706;BME280;21234;48.690;9.016;2023-02-15T06:09:42;97256.50;;;-0.39;95.78
706;BME280;21234;48.690;9.016;2023-02-15T06:12:09;97252.63;;;-0.44;95.78
706;BME280;21234;48.690;9.016;2023-02-15T06:14:36;97254.00;;;-0.32;95.39
706;BME280;21234;48.690;9.016;2023-02-15T06:17:02;97251.09;;;-0.21;94.49
706;BME280;21234;48.690;9.016;2023-02-15T06:19:30;97259.41;;;-0.24;95.19
706;BME280;21234;48.690;9.016;2023-02-15T06:21:57;97262.88;;;-0.31;95.82
706;BME280;21234;48.690;9.016;2023-02-15T06:24:24;97269.72;;;-0.37;97.08
706;BME280;21234;48.690;9.016;2023-02-15T06:26:50;97270.53;;;-0.37;95.88
706;BME280;21234;48.690;9.016;2023-02-15T06:29:17;97265.84;;;-0.43;96.44
706;BME280;21234;48.690;9.016;2023-02-15T06:31:44;97260.53;;;-0.35;95.97
706;BME280;21234;48.690;9.016;2023-02-15T06:34:11;97270.53;;;-0.37;96.06
706;BME280;21234;48.690;9.016;2023-02-15T06:36:39;97267.03;;;-0.37;95.91
706;BME280;21234;48.690;9.016;2023-02-15T06:39:06;97267.19;;;-0.39;95.47
706;BME280;21234;48.690;9.016;2023-02-15T06:41:33;97270.19;;;-0.42;95.68
706;BME280;21234;48.690;9.016;2023-02-15T06:43:59;97272.72;;;-0.32;95.34
706;BME280;21234;48.690;9.016;2023-02-15T06:46:26;97275.91;;;-0.37;95.95
706;BME280;21234;48.690;9.016;2023-02-15T06:48:53;97271.38;;;-0.36;96.06
706;BME280;21234;48.690;9.016;2023-02-15T06:51:20;97272.72;;;-0.32;95.85
706;BME280;21234;48.690;9.016;2023-02-15T06:53:48;97268.22;;;-0.31;95.50
706;BME280;21234;48.690;9.016;2023-02-15T06:56:14;97269.56;;;-0.36;96.14
706;BME280;21234;48.690;9.016;2023-02-15T06:58:42;97272.63;;;-0.22;96.95
706;BME280;21234;48.690;9.016;2023-02-15T07:01:11;97269.53;;;-0.10;96.08
706;BME280;21234;48.690;9.016;2023-02-15T07:03:38;97272.78;;;0.10;94.75
706;BME280;21234;48.690;9.016;2023-02-15T07:06:04;97269.25;;;0.10;93.87
706;BME280;21234;48.690;9.016;2023-02-15T07:08:33;97269.88;;;-0.05;94.53
706;BME280;21234;48.690;9.016;2023-02-15T07:11:02;97271.91;;;0.02;93.91
706;BME280;21234;48.690;9.016;2023-02-15T07:13:42;97268.78;;;0.14;93.20
706;BME280;21234;48.690;9.016;2023-02-15T07:16:09;97273.03;;;0.25;93.32
706;BME280;21234;48.690;9.016;2023-02-15T07:18:37;97269.22;;;0.44;93.99
706;BME280;21234;48.690;9.016;2023-02-15T07:21:04;97268.38;;;0.43;93.87
706;BME280;21234;48.690;9.016;2023-02-15T07:23:33;97272.34;;;1.22;87.85
706;BME280;21234;48.690;9.016;2023-02-15T07:26:01;97275.47;;;1.66;84.76
706;BME280;21234;48.690;9.016;2023-02-15T07:28:29;97266.00;;;2.11;83.37
706;BME280;21234;48.690;9.016;2023-02-15T07:30:56;97265.50;;;2.46;82.22
706;BME280;21234;48.690;9.016;2023-02-15T07:33:23;97264.19;;;2.73;80.62
706;BME280;21234;48.690;9.016;2023-02-15T07:35:53;97263.50;;;2.48;80.32
706;BME280;21234;48.690;9.016;2023-02-15T07:38:21;97262.06;;;2.29;81.01
706;BME280;21234;48.690;9.016;2023-02-15T07:40:48;97262.19;;;2.67;80.42
706;BME280;21234;48.690;9.016;2023-02-15T07:43:16;97259.25;;;2.85;79.06
706;BME280;21234;48.690;9.016;2023-02-15T07:45:43;97253.94;;;2.77;78.36
706;BME280;21234;48.690;9.016;2023-02-15T07:48:10;97248.00;;;2.58;79.66
706;BME280;21234;48.690;9.016;2023-02-15T07:50:36;97249.91;;;2.50;80.01
706;BME280;21234;48.690;9.016;2023-02-15T07:53:03;97258.75;;;2.19;81.23
706;BME280;21234;48.690;9.016;2023-02-15T07:55:30;97266.56;;;1.90;82.67
706;BME280;21234;48.690;9.016;2023-02-15T07:57:57;97267.47;;;1.50;84.49
706;BME280;21234;48.690;9.016;2023-02-15T08:00:25;97272.50;;;1.37;85.26
706;BME280;21234;48.690;9.016;2023-02-15T08:02:53;97268.00;;;1.13;86.27
706;BME280;21234;48.690;9.016;2023-02-15T08:05:34;97271.31;;;0.98;86.97
706;BME280;21234;48.690;9.016;2023-02-15T08:08:01;97272.88;;;1.25;86.77
706;BME280;21234;48.690;9.016;2023-02-15T08:10:28;97271.00;;;1.34;86.97
706;BME280;21234;48.690;9.016;2023-02-15T08:13:08;97267.47;;;1.50;87.62
706;BME280;21234;48.690;9.016;2023-02-15T08:15:36;97274.13;;;1.70;86.23
706;BME280;21234;48.690;9.016;2023-02-15T08:18:03;97280.53;;;1.61;86.01
706;BME280;21234;48.690;9.016;2023-02-15T08:20:30;97278.16;;;1.82;85.18
706;BME280;21234;48.690;9.016;2023-02-15T08:22:56;97266.78;;;2.27;85.63
706;BME280;21234;48.690;9.016;2023-02-15T08:25:23;97261.34;;;2.97;81.26
706;BME280;21234;48.690;9.016;2023-02-15T08:27:50;97267.06;;;3.40;78.97
706;BME280;21234;48.690;9.016;2023-02-15T08:30:17;97260.78;;;3.62;78.24
706;BME280;21234;48.690;9.016;2023-02-15T08:32:45;97257.22;;;3.99;73.61
706;BME280;21234;48.690;9.016;2023-02-15T08:35:11;97261.22;;;4.33;73.31
706;BME280;21234;48.690;9.016;2023-02-15T08:37:38;97264.28;;;4.00;75.07
706;BME280;21234;48.690;9.016;2023-02-15T08:40:06;97259.53;;;3.73;75.57
706;BME280;21234;48.690;9.016;2023-02-15T08:42:33;97266.16;;;3.48;76.06
706;BME280;21234;48.690;9.016;2023-02-15T08:44:59;97264.22;;;3.19;76.79
706;BME280;21234;48.690;9.016;2023-02-15T08:47:26;97265.34;;;3.01;76.16
706;BME280;21234;48.690;9.016;2023-02-15T08:49:55;97257.97;;;2.73;75.65
706;BME280;21234;48.690;9.016;2023-02-15T08:52:21;97261.53;;;2.65;76.03
706;BME280;21234;48.690;9.016;2023-02-15T08:54:48;97264.50;;;2.78;78.15
706;BME280;21234;48.690;9.016;2023-02-15T08:57:14;97259.13;;;3.01;75.15
706;BME280;21234;48.690;9.016;2023-02-15T08:59:41;97259.59;;;3.27;75.01
706;BME280;21234;48.690;9.016;2023-02-15T09:02:09;97253.44;;;3.42;76.29
706;BME280;21234;48.690;9.016;2023-02-15T09:04:36;97253.75;;;3.61;76.54
706;BME280;21234;48.690;9.016;2023-02-15T09:07:04;97258.22;;;3.69;76.55
706;BME280;21234;48.690;9.016;2023-02-15T09:09:31;97251.00;;;3.84;75.19
706;BME280;21234;48.690;9.016;2023-02-15T09:11:58;97256.03;;;3.87;74.74
706;BME280;21234;48.690;9.016;2023-02-15T09:14:25;97254.44;;;3.93;75.11
706;BME280;21234;48.690;9.016;2023-02-15T09:16:52;97247.75;;;4.03;73.81
706;BME280;21234;48.690;9.016;2023-02-15T09:19:20;97243.78;;;4.14;74.18
706;BME280;21234;48.690;9.016;2023-02-15T09:21:47;97244.72;;;4.07;73.06
706;BME280;21234;48.690;9.016;2023-02-15T09:24:16;97246.00;;;4.11;72.23
706;BME280;21234;48.690;9.016;2023-02-15T09:26:46;97237.06;;;4.25;73.09
706;BME280;21234;48.690;9.016;2023-02-15T09:29:14;97239.31;;;4.36;72.81
706;BME280;21234;48.690;9.016;2023-02-15T09:31:42;97234.84;;;4.43;70.63
706;BME280;21234;48.690;9.016;2023-02-15T09:34:10;97226.78;;;4.64;69.22
706;BME280;21234;48.690;9.016;2023-02-15T09:36:38;97226.78;;;5.00;66.70
706;BME280;21234;48.690;9.016;2023-02-15T09:39:07;97222.16;;;5.37;65.91
706;BME280;21234;48.690;9.016;2023-02-15T09:42:04;97216.50;;;5.60;64.25
706;BME280;21234;48.690;9.016;2023-02-15T09:47:52;97212.34;;;6.20;64.01
706;BME280;21234;48.690;9.016;2023-02-15T09:50:30;97208.31;;;6.37;59.90
706;BME280;21234;48.690;9.016;2023-02-15T09:53:12;97217.72;;;6.54;59.53
706;BME280;21234;48.690;9.016;2023-02-15T09:55:50;97213.59;;;6.65;58.64
706;BME280;21234;48.690;9.016;2023-02-15T09:58:28;97207.63;;;6.83;57.52
706;BME280;21234;48.690;9.016;2023-02-15T10:01:00;97216.00;;;7.01;57.50
706;BME280;21234;48.690;9.016;2023-02-15T10:03:43;97219.75;;;7.20;57.85
706;BME280;21234;48.690;9.016;2023-02-15T10:06:35;97219.59;;;7.34;55.37
706;BME280;21234;48.690;9.016;2023-02-15T10:09:26;97220.66;;;7.47;55.61
706;BME280;21234;48.690;9.016;2023-02-15T10:12:15;97216.06;;;7.67;55.13
706;BME280;21234;48.690;9.016;2023-02-15T10:15:21;97211.84;;;7.84;55.72
706;BME280;21234;48.690;9.016;2023-02-15T10:18:17;97217.69;;;7.94;56.02
706;BME280;21234;48.690;9.016;2023-02-15T10:20:56;97213.94;;;7.95;56.16
706;BME280;21234;48.690;9.016;2023-02-15T10:23:34;97201.59;;;8.13;55.62
706;BME280;21234;48.690;9.016;2023-02-15T10:26:12;97206.00;;;8.07;54.65
706;BME280;21234;48.690;9.016;2023-02-15T10:28:45;97212.00;;;8.29;53.98
706;BME280;21234;48.690;9.016;2023-02-15T10:31:21;97203.59;;;8.50;53.88
706;BME280;21234;48.690;9.016;2023-02-15T10:33:58;97199.38;;;8.67;55.57
706;BME280;21234;48.690;9.016;2023-02-15T10:36:36;97198.66;;;8.79;54.44
706;BME280;21234;48.690;9.016;2023-02-15T10:39:11;97203.19;;;8.91;55.03
706;BME280;21234;48.690;9.016;2023-02-15T10:41:48;97189.19;;;9.01;55.26
706;BME280;21234;48.690;9.016;2023-02-15T10:44:30;97188.03;;;9.15;52.88
706;BME280;21234;48.690;9.016;2023-02-15T10:47:20;97189.88;;;9.21;51.96
706;BME280;21234;48.690;9.016;2023-02-15T10:50:06;97180.38;;;9.37;52.11
706;BME280;21234;48.690;9.016;2023-02-15T10:52:46;97175.16;;;9.35;50.75
706;BME280;21234;48.690;9.016;2023-02-15T10:55:25;97179.78;;;9.60;50.05
706;BME280;21234;48.690;9.016;2023-02-15T10:57:59;97167.28;;;9.77;50.60
706;BME280;21234;48.690;9.016;2023-02-15T11:00:35;97170.16;;;9.82;49.57
706;BME280;21234;48.690;9.016;2023-02-15T11:03:35;97172.38;;;9.92;49.44
706;BME280;21234;48.690;9.016;2023-02-15T11:06:05;97172.03;;;10.06;49.96
706;BME280;21234;48.690;9.016;2023-02-15T11:08:40;97172.53;;;9.97;47.51
706;BME280;21234;48.690;9.016;2023-02-15T11:11:10;97172.00;;;9.88;49.04
706;BME280;21234;48.690;9.016;2023-02-15T11:13:40;97164.31;;;10.03;49.98
706;BME280;21234;48.690;9.016;2023-02-15T11:16:12;97169.00;;;10.15;50.53
706;BME280;21234;48.690;9.016;2023-02-15T11:18:46;97154.97;;;10.18;48.74
706;BME280;21234;48.690;9.016;2023-02-15T11:21:21;97155.25;;;10.09;48.23
706;BME280;21234;48.690;9.016;2023-02-15T11:23:49;97150.16;;;10.20;48.74
706;BME280;21234;48.690;9.016;2023-02-15T11:26:19;97148.59;;;10.30;49.31
706;BME280;21234;48.690;9.016;2023-02-15T11:28:51;97139.75;;;10.35;49.59
706;BME280;21234;48.690;9.016;2023-02-15T11:31:23;97148.84;;;10.40;49.27
706;BME280;21234;48.690;9.016;2023-02-15T11:33:55;97141.22;;;10.49;49.07
706;BME280;21234;48.690;9.016;2023-02-15T11:36:26;97145.00;;;10.66;49.48
706;BME280;21234;48.690;9.016;2023-02-15T11:38:58;97149.50;;;10.72;49.44
706;BME280;21234;48.690;9.016;2023-02-15T11:41:29;97146.75;;;10.91;47.33
706;BME280;21234;48.690;9.016;2023-02-15T11:44:03;97138.34;;;10.92;48.86
706;BME280;21234;48.690;9.016;2023-02-15T11:46:32;97142.50;;;10.95;48.35
706;BME280;21234;48.690;9.016;2023-02-15T11:49:00;97137.91;;;10.95;48.30
706;BME280;21234;48.690;9.016;2023-02-15T11:51:28;97139.56;;;10.96;49.50
706;BME280;21234;48.690;9.016;2023-02-15T11:53:56;97135.16;;;10.95;49.44
706;BME280;21234;48.690;9.016;2023-02-15T11:56:24;97137.81;;;11.02;49.11
706;BME280;21234;48.690;9.016;2023-02-15T11:58:55;97135.91;;;11.02;48.47
706;BME280;21234;48.690;9.016;2023-02-15T12:01:27;97131.09;;;11.16;46.01
706;BME280;21234;48.690;9.016;2023-02-15T12:03:59;97125.03;;;11.14;46.61
706;BME280;21234;48.690;9.016;2023-02-15T12:06:32;97134.78;;;11.22;45.16
706;BME280;21234;48.690;9.016;2023-02-15T12:09:05;97124.03;;;11.38;45.79
706;BME280;21234;48.690;9.016;2023-02-15T12:11:36;97123.56;;;11.41;46.52
706;BME280;21234;48.690;9.016;2023-02-15T12:14:04;97128.41;;;11.39;43.86
706;BME280;21234;48.690;9.016;2023-02-15T12:16:34;97126.06;;;11.55;43.48
706;BME280;21234;48.690;9.016;2023-02-15T12:19:18;97123.00;;;11.63;45.23
706;BME280;21234;48.690;9.016;2023-02-15T12:21:51;97118.75;;;11.67;43.83
706;BME280;21234;48.690;9.016;2023-02-15T12:24:21;97118.16;;;11.76;41.96
706;BME280;21234;48.690;9.016;2023-02-15T12:26:57;97118.03;;;11.83;40.73
706;BME280;21234;48.690;9.016;2023-02-15T12:29:27;97116.75;;;11.86;42.45
706;BME280;21234;48.690;9.016;2023-02-15T12:31:55;97119.22;;;11.87;41.18
706;BME280;21234;48.690;9.016;2023-02-15T12:34:26;97109.41;;;11.98;41.42
706;BME280;21234;48.690;9.016;2023-02-15T12:36:55;97112.72;;;12.00;42.62
706;BME280;21234;48.690;9.016;2023-02-15T12:39:25;97109.63;;;11.96;44.08
706;BME280;21234;48.690;9.016;2023-02-15T12:42:02;97105.03;;;11.97;41.95
706;BME280;21234;48.690;9.016;2023-02-15T12:44:31;97109.00;;;12.06;43.22
706;BME280;21234;48.690;9.016;2023-02-15T12:47:00;97108.75;;;12.19;42.87
706;BME280;21234;48.690;9.016;2023-02-15T12:49:28;97094.31;;;12.19;42.28
706;BME280;21234;48.690;9.016;2023-02-15T12:51:58;97098.81;;;12.25;41.63
706;BME280;21234;48.690;9.016;2023-02-15T12:54:38;97091.84;;;12.45;41.43
706;BME280;21234;48.690;9.016;2023-02-15T12:57:22;97091.09;;;12.62;40.59
706;BME280;21234;48.690;9.016;2023-02-15T12:59:51;97084.16;;;12.71;42.92
706;BME280;21234;48.690;9.016;2023-02-15T13:02:22;97082.47;;;12.82;41.48
706;BME280;21234;48.690;9.016;2023-02-15T13:04:50;97085.75;;;13.12;42.45
706;BME280;21234;48.690;9.016;2023-02-15T13:07:18;97082.34;;;13.05;41.78
706;BME280;21234;48.690;9.016;2023-02-15T13:09:46;97077.75;;;13.22;42.65
706;BME280;21234;48.690;9.016;2023-02-15T13:12:18;97070.22;;;13.46;40.05
706;BME280;21234;48.690;9.016;2023-02-15T13:14:47;97063.69;;;13.47;39.03
706;BME280;21234;48.690;9.016;2023-02-15T13:17:18;97060.50;;;13.72;40.30
706;BME280;21234;48.690;9.016;2023-02-15T13:19:48;97050.88;;;13.64;38.91
706;BME280;21234;48.690;9.016;2023-02-15T13:22:19;97048.34;;;13.79;39.78
706;BME280;21234;48.690;9.016;2023-02-15T13:24:50;97050.00;;;14.02;40.51
706;BME280;21234;48.690;9.016;2023-02-15T13:27:20;97048.97;;;14.25;38.24
706;BME280;21234;48.690;9.016;2023-02-15T13:29:50;97046.47;;;14.24;36.01
706;BME280;21234;48.690;9.016;2023-02-15T13:32:25;97054.84;;;14.39;37.71
706;BME280;21234;48.690;9.016;2023-02-15T13:34:54;97052.22;;;14.71;35.83
706;BME280;21234;48.690;9.016;2023-02-15T13:37:37;97048.91;;;14.91;35.50
706;BME280;21234;48.690;9.016;2023-02-15T13:40:15;97043.59;;;15.11;32.77
706;BME280;21234;48.690;9.016;2023-02-15T13:42:49;97036.84;;;15.98;32.98
706;BME280;21234;48.690;9.016;2023-02-15T13:45:30;97037.38;;;16.52;34.04
706;BME280;21234;48.690;9.016;2023-02-15T13:48:02;97030.25;;;16.56;33.54
706;BME280;21234;48.690;9.016;2023-02-15T13:50:45;97032.03;;;16.88;31.85
706;BME280;21234;48.690;9.016;2023-02-15T13:53:30;97025.19;;;17.36;30.95
706;BME280;21234;48.690;9.016;2023-02-15T13:56:06;97017.75;;;17.52;30.43